Terminal Aerodrome Forecast
Issued by NWS

Home | Current Version | Previous Version | Text Only | Print | Product List | Glossary On
Versions: 1 2 3 4 5 6 7 8 9 10 11 12 13 14 15 16 17 18 19 20 21 22 23 24 25 26 27
000
FTUS46 KMTR 042100 AAA
TAFSFO
TAF AMD
KSFO 042100Z 0421/0524 26025G32KT P6SM SKC
     FM050400 27015G22KT P6SM FEW015
     FM050800 27011KT P6SM FEW015
     FM051200 23005KT P6SM FEW015
     FM052100 25015G22KT P6SM FEW015=

USA.gov is the U.S. government's official web portal to all federal, state and local government web resources and services.